ITY1779 LIRF-LICJ
Flight info
| Callsign | ITY1779 |
|---|---|
| Flight time | 0h 48m |
| Altitude | 31000 |
| Route | PEPIX9A PEPIX DCT UNIXO DCT LURON LURON3N |
| Aircraft | A320/M-VGDW/C |
Departure
| Time | 2026-05-06 11:51 |
|---|---|
| Airport | Rome–Fiumicino Leonardo da Vinci International Airport (LIRF) |
Arrival
| Time | 2026-05-06 12:40 |
|---|---|
| Airport | Falcone–Borsellino Airport (LICJ) |
| Time | Latitude | Longitude | Altitude | Speed | Heading |
|---|---|---|---|---|---|
| 2026-05-06 10:39 | 41.79726 | 12.25643 | 15 ft | 0 kts | 295° |
| 2026-05-06 11:39 | 41.79726 | 12.25644 | 17 ft | 1 kts | 295° |
| 2026-05-06 11:39 | 41.79720 | 12.25662 | 15 ft | 0 kts | 294° |
| 2026-05-06 11:41 | 41.79717 | 12.25671 | 16 ft | 3 kts | 300° |
| 2026-05-06 11:41 | 41.79706 | 12.25690 | 15 ft | 3 kts | 339° |
| 2026-05-06 11:42 | 41.79689 | 12.25693 | 15 ft | 3 kts | 18° |
| 2026-05-06 11:42 | 41.79677 | 12.25686 | 15 ft | 1 kts | 25° |
| 2026-05-06 11:42 | 41.79675 | 12.25685 | 15 ft | 0 kts | 25° |
| 2026-05-06 11:44 | 41.79675 | 12.25686 | 15 ft | 1 kts | 25° |
| 2026-05-06 11:44 | 41.79704 | 12.25704 | 17 ft | 6 kts | 25° |
| 2026-05-06 11:45 | 41.79752 | 12.25734 | 15 ft | 8 kts | 25° |
| 2026-05-06 11:45 | 41.79804 | 12.25767 | 15 ft | 9 kts | 25° |
| 2026-05-06 11:45 | 41.79865 | 12.25811 | 16 ft | 11 kts | 33° |
| 2026-05-06 11:45 | 41.79940 | 12.25862 | 15 ft | 12 kts | 24° |
| 2026-05-06 11:46 | 41.80013 | 12.25908 | 15 ft | 11 kts | 25° |
| 2026-05-06 11:46 | 41.80079 | 12.25950 | 15 ft | 10 kts | 25° |
| 2026-05-06 11:46 | 41.80152 | 12.25995 | 16 ft | 12 kts | 25° |
| 2026-05-06 11:46 | 41.80233 | 12.26044 | 17 ft | 14 kts | 24° |
| 2026-05-06 11:47 | 41.80327 | 12.26103 | 15 ft | 16 kts | 25° |
| 2026-05-06 11:47 | 41.80428 | 12.26165 | 15 ft | 15 kts | 22° |
| 2026-05-06 11:47 | 41.80509 | 12.26206 | 17 ft | 11 kts | 39° |
| 2026-05-06 11:47 | 41.80543 | 12.26286 | 15 ft | 9 kts | 69° |
| 2026-05-06 11:48 | 41.80565 | 12.26368 | 15 ft | 11 kts | 70° |
| 2026-05-06 11:48 | 41.80594 | 12.26476 | 17 ft | 14 kts | 70° |
| 2026-05-06 11:48 | 41.80629 | 12.26601 | 15 ft | 15 kts | 69° |
| 2026-05-06 11:48 | 41.80667 | 12.26739 | 17 ft | 17 kts | 70° |
| 2026-05-06 11:49 | 41.80710 | 12.26894 | 15 ft | 19 kts | 70° |
| 2026-05-06 11:49 | 41.80750 | 12.27018 | 16 ft | 10 kts | 49° |
| 2026-05-06 11:49 | 41.80810 | 12.27038 | 15 ft | 9 kts | 348° |
| 2026-05-06 11:49 | 41.80864 | 12.27015 | 15 ft | 8 kts | 341° |
| 2026-05-06 11:50 | 41.80912 | 12.26992 | 15 ft | 7 kts | 339° |
| 2026-05-06 11:50 | 41.80951 | 12.26958 | 16 ft | 7 kts | 307° |
| 2026-05-06 11:50 | 41.80951 | 12.26896 | 13 ft | 6 kts | 249° |
| 2026-05-06 11:50 | 41.80934 | 12.26839 | 16 ft | 11 kts | 249° |
| 2026-05-06 11:51 | 41.80838 | 12.26499 | 17 ft | 75 kts | 249° |
| 2026-05-06 11:51 | 41.80580 | 12.25561 | 15 ft | 137 kts | 250° |
| 2026-05-06 11:51 | 41.80195 | 12.24177 | 199 ft | 168 kts | 245° |
| 2026-05-06 11:51 | 41.79786 | 12.22689 | 867 ft | 171 kts | 245° |
| 2026-05-06 11:52 | 41.79363 | 12.21203 | 1476 ft | 177 kts | 248° |
| 2026-05-06 11:52 | 41.79211 | 12.19478 | 1900 ft | 197 kts | 266° |
| 2026-05-06 11:52 | 41.79204 | 12.17571 | 2376 ft | 211 kts | 265° |
| 2026-05-06 11:52 | 41.79002 | 12.15621 | 3026 ft | 210 kts | 245° |
| 2026-05-06 11:53 | 41.78243 | 12.13987 | 3678 ft | 206 kts | 220° |
| 2026-05-06 11:53 | 41.77198 | 12.12687 | 4375 ft | 205 kts | 219° |
| 2026-05-06 11:53 | 41.76147 | 12.11391 | 5076 ft | 206 kts | 220° |
| 2026-05-06 11:53 | 41.75095 | 12.10086 | 5758 ft | 206 kts | 220° |
| 2026-05-06 11:54 | 41.74040 | 12.08779 | 6431 ft | 207 kts | 221° |
| 2026-05-06 11:54 | 41.72974 | 12.07455 | 7088 ft | 209 kts | 222° |
| 2026-05-06 11:54 | 41.71904 | 12.06124 | 7722 ft | 211 kts | 222° |
| 2026-05-06 11:54 | 41.71154 | 12.05301 | 8125 ft | 212 kts | 212° |
| 2026-05-06 11:55 | 41.69790 | 12.04513 | 8654 ft | 221 kts | 195° |
| 2026-05-06 11:55 | 41.68173 | 12.04347 | 8911 ft | 247 kts | 182° |
| 2026-05-06 11:55 | 41.66374 | 12.04356 | 9276 ft | 270 kts | 182° |
| 2026-05-06 11:55 | 41.64471 | 12.04360 | 9916 ft | 278 kts | 182° |
| 2026-05-06 11:56 | 41.62494 | 12.04116 | 10352 ft | 295 kts | 197° |
| 2026-05-06 11:56 | 41.60476 | 12.03199 | 10610 ft | 317 kts | 202° |
| 2026-05-06 11:56 | 41.58319 | 12.02268 | 11115 ft | 331 kts | 195° |
| 2026-05-06 11:56 | 41.55997 | 12.01849 | 11847 ft | 339 kts | 186° |
| 2026-05-06 11:57 | 41.53656 | 12.01741 | 12571 ft | 343 kts | 184° |
| 2026-05-06 11:57 | 41.51254 | 12.01703 | 13296 ft | 347 kts | 184° |
| 2026-05-06 11:57 | 41.48825 | 12.01702 | 14019 ft | 350 kts | 183° |
| 2026-05-06 11:57 | 41.46374 | 12.01713 | 14717 ft | 354 kts | 183° |
| 2026-05-06 11:58 | 41.43897 | 12.01721 | 15384 ft | 357 kts | 184° |
| 2026-05-06 11:58 | 41.41396 | 12.01719 | 16049 ft | 360 kts | 184° |
| 2026-05-06 11:58 | 41.38879 | 12.01710 | 16691 ft | 363 kts | 184° |
| 2026-05-06 11:58 | 41.36335 | 12.01699 | 17313 ft | 366 kts | 184° |
| 2026-05-06 11:59 | 41.33770 | 12.01700 | 17919 ft | 370 kts | 181° |
| 2026-05-06 11:59 | 41.31227 | 12.02166 | 18508 ft | 379 kts | 169° |
| 2026-05-06 11:59 | 41.28727 | 12.03395 | 19095 ft | 388 kts | 157° |
| 2026-05-06 11:59 | 41.26435 | 12.05382 | 19677 ft | 398 kts | 144° |
| 2026-05-06 12:00 | 41.24410 | 12.07940 | 20254 ft | 403 kts | 140° |
| 2026-05-06 12:00 | 41.22426 | 12.10532 | 20803 ft | 406 kts | 140° |
| 2026-05-06 12:00 | 41.20394 | 12.13177 | 21352 ft | 409 kts | 140° |
| 2026-05-06 12:00 | 41.18348 | 12.15828 | 21882 ft | 412 kts | 140° |
| 2026-05-06 12:01 | 41.16282 | 12.18499 | 22402 ft | 414 kts | 140° |
| 2026-05-06 12:01 | 41.14206 | 12.21179 | 22874 ft | 417 kts | 140° |
| 2026-05-06 12:01 | 41.12112 | 12.23874 | 23340 ft | 420 kts | 141° |
| 2026-05-06 12:01 | 41.10008 | 12.26584 | 23792 ft | 423 kts | 140° |
| 2026-05-06 12:02 | 41.07916 | 12.29281 | 24234 ft | 425 kts | 141° |
| 2026-05-06 12:02 | 41.05780 | 12.32031 | 24651 ft | 428 kts | 141° |
| 2026-05-06 12:02 | 41.03630 | 12.34794 | 25056 ft | 431 kts | 141° |
| 2026-05-06 12:02 | 41.01468 | 12.37572 | 25440 ft | 434 kts | 141° |
| 2026-05-06 12:03 | 40.99300 | 12.40358 | 25826 ft | 436 kts | 141° |
| 2026-05-06 12:03 | 40.97135 | 12.43134 | 26179 ft | 439 kts | 141° |
| 2026-05-06 12:03 | 40.94930 | 12.45953 | 26542 ft | 441 kts | 141° |
| 2026-05-06 12:03 | 40.92712 | 12.48787 | 26898 ft | 443 kts | 141° |
| 2026-05-06 12:04 | 40.90488 | 12.51626 | 27245 ft | 445 kts | 141° |
| 2026-05-06 12:04 | 40.88250 | 12.54488 | 27585 ft | 447 kts | 141° |
| 2026-05-06 12:04 | 40.86005 | 12.57360 | 27919 ft | 449 kts | 141° |
| 2026-05-06 12:04 | 40.83770 | 12.60215 | 28219 ft | 452 kts | 141° |
| 2026-05-06 12:05 | 40.81484 | 12.63118 | 28514 ft | 453 kts | 143° |
| 2026-05-06 12:05 | 40.79026 | 12.65668 | 28816 ft | 448 kts | 152° |
| 2026-05-06 12:05 | 40.76309 | 12.67646 | 29105 ft | 443 kts | 161° |
| 2026-05-06 12:05 | 40.73429 | 12.69007 | 29375 ft | 438 kts | 170° |
| 2026-05-06 12:06 | 40.70444 | 12.69816 | 29632 ft | 437 kts | 175° |
| 2026-05-06 12:06 | 40.67442 | 12.70512 | 29890 ft | 438 kts | 175° |
| 2026-05-06 12:06 | 40.64434 | 12.71210 | 30139 ft | 439 kts | 175° |
| 2026-05-06 12:06 | 40.61422 | 12.71908 | 30382 ft | 441 kts | 175° |
| 2026-05-06 12:07 | 40.58390 | 12.72611 | 30593 ft | 443 kts | 175° |
| 2026-05-06 12:07 | 40.55348 | 12.73320 | 30873 ft | 442 kts | 175° |
| 2026-05-06 12:07 | 40.52352 | 12.74016 | 31004 ft | 442 kts | 175° |
| 2026-05-06 12:07 | 40.49321 | 12.74719 | 31028 ft | 442 kts | 175° |
| 2026-05-06 12:08 | 40.43266 | 12.76125 | 31027 ft | 442 kts | 175° |
| 2026-05-06 12:08 | 40.37213 | 12.77518 | 31027 ft | 441 kts | 175° |
| 2026-05-06 12:09 | 40.31150 | 12.78903 | 31026 ft | 442 kts | 175° |
| 2026-05-06 12:09 | 40.25100 | 12.80297 | 31024 ft | 442 kts | 175° |
| 2026-05-06 12:10 | 40.19045 | 12.81694 | 31020 ft | 442 kts | 175° |
| 2026-05-06 12:10 | 40.12984 | 12.83080 | 30716 ft | 440 kts | 175° |
| 2026-05-06 12:11 | 40.09992 | 12.83763 | 30190 ft | 433 kts | 175° |
| 2026-05-06 12:11 | 40.07040 | 12.84436 | 29665 ft | 429 kts | 175° |
| 2026-05-06 12:11 | 40.04105 | 12.85103 | 29140 ft | 426 kts | 175° |
| 2026-05-06 12:11 | 40.01195 | 12.85763 | 28610 ft | 423 kts | 175° |
| 2026-05-06 12:12 | 39.98345 | 12.86412 | 28092 ft | 420 kts | 175° |
| 2026-05-06 12:12 | 39.95465 | 12.87071 | 27565 ft | 418 kts | 175° |
| 2026-05-06 12:12 | 39.92603 | 12.87726 | 27039 ft | 416 kts | 175° |
| 2026-05-06 12:12 | 39.89757 | 12.88374 | 26511 ft | 413 kts | 175° |
| 2026-05-06 12:13 | 39.86924 | 12.89017 | 25983 ft | 410 kts | 175° |
| 2026-05-06 12:13 | 39.84147 | 12.89644 | 25463 ft | 407 kts | 175° |
| 2026-05-06 12:13 | 39.81366 | 12.90270 | 24937 ft | 404 kts | 175° |
| 2026-05-06 12:13 | 39.78606 | 12.90895 | 24411 ft | 401 kts | 174° |
| 2026-05-06 12:14 | 39.75873 | 12.91511 | 23886 ft | 398 kts | 174° |
| 2026-05-06 12:14 | 39.73147 | 12.92124 | 23358 ft | 395 kts | 175° |
| 2026-05-06 12:14 | 39.70449 | 12.92730 | 22833 ft | 392 kts | 174° |
| 2026-05-06 12:14 | 39.67767 | 12.93336 | 22307 ft | 390 kts | 174° |
| 2026-05-06 12:15 | 39.65097 | 12.93939 | 21780 ft | 388 kts | 174° |
| 2026-05-06 12:15 | 39.62431 | 12.94541 | 21252 ft | 386 kts | 174° |
| 2026-05-06 12:15 | 39.59790 | 12.95138 | 20726 ft | 383 kts | 174° |
| 2026-05-06 12:15 | 39.57171 | 12.95731 | 20201 ft | 381 kts | 174° |
| 2026-05-06 12:16 | 39.54562 | 12.96319 | 19674 ft | 379 kts | 174° |
| 2026-05-06 12:16 | 39.51991 | 12.96896 | 19152 ft | 377 kts | 174° |
| 2026-05-06 12:16 | 39.49415 | 12.97473 | 18627 ft | 375 kts | 174° |
| 2026-05-06 12:16 | 39.46839 | 12.98049 | 18100 ft | 373 kts | 174° |
| 2026-05-06 12:17 | 39.44283 | 12.98624 | 17573 ft | 371 kts | 174° |
| 2026-05-06 12:17 | 39.41748 | 12.99195 | 17048 ft | 370 kts | 174° |
| 2026-05-06 12:17 | 39.39210 | 12.99765 | 16519 ft | 368 kts | 174° |
| 2026-05-06 12:17 | 39.36694 | 13.00326 | 15993 ft | 366 kts | 174° |
| 2026-05-06 12:18 | 39.34194 | 13.00882 | 15469 ft | 364 kts | 174° |
| 2026-05-06 12:18 | 39.31696 | 13.01439 | 14943 ft | 363 kts | 174° |
| 2026-05-06 12:18 | 39.29231 | 13.01988 | 14424 ft | 363 kts | 174° |
| 2026-05-06 12:18 | 39.26749 | 13.02538 | 13913 ft | 359 kts | 174° |
| 2026-05-06 12:19 | 39.24288 | 13.03080 | 13380 ft | 358 kts | 174° |
| 2026-05-06 12:19 | 39.21840 | 13.03626 | 12837 ft | 354 kts | 174° |
| 2026-05-06 12:19 | 39.19419 | 13.04162 | 12307 ft | 353 kts | 173° |
| 2026-05-06 12:19 | 39.17006 | 13.04703 | 11790 ft | 348 kts | 174° |
| 2026-05-06 12:20 | 39.14629 | 13.05231 | 11265 ft | 346 kts | 173° |
| 2026-05-06 12:20 | 39.12264 | 13.05752 | 10736 ft | 343 kts | 173° |
| 2026-05-06 12:20 | 39.09951 | 13.06264 | 10217 ft | 340 kts | 173° |
| 2026-05-06 12:20 | 39.07629 | 13.06782 | 9690 ft | 337 kts | 172° |
| 2026-05-06 12:21 | 39.05324 | 13.07294 | 9162 ft | 334 kts | 172° |
| 2026-05-06 12:21 | 39.03039 | 13.07797 | 8632 ft | 331 kts | 172° |
| 2026-05-06 12:21 | 39.00771 | 13.08295 | 8145 ft | 328 kts | 172° |
| 2026-05-06 12:21 | 38.98572 | 13.08781 | 7995 ft | 313 kts | 172° |
| 2026-05-06 12:22 | 38.96491 | 13.09247 | 8009 ft | 294 kts | 172° |
| 2026-05-06 12:22 | 38.94519 | 13.09690 | 8008 ft | 283 kts | 172° |
| 2026-05-06 12:22 | 38.92583 | 13.10125 | 8010 ft | 281 kts | 172° |
| 2026-05-06 12:22 | 38.90660 | 13.10547 | 8008 ft | 280 kts | 173° |
| 2026-05-06 12:23 | 38.88720 | 13.10703 | 8008 ft | 279 kts | 183° |
| 2026-05-06 12:23 | 38.86823 | 13.10457 | 8009 ft | 278 kts | 192° |
| 2026-05-06 12:23 | 38.84954 | 13.09828 | 8010 ft | 276 kts | 200° |
| 2026-05-06 12:23 | 38.83190 | 13.08837 | 8012 ft | 277 kts | 209° |
| 2026-05-06 12:24 | 38.81578 | 13.07507 | 8005 ft | 275 kts | 217° |
| 2026-05-06 12:24 | 38.80039 | 13.06039 | 8010 ft | 276 kts | 217° |
| 2026-05-06 12:24 | 38.78493 | 13.04581 | 8006 ft | 276 kts | 216° |
| 2026-05-06 12:24 | 38.76939 | 13.03121 | 8002 ft | 276 kts | 216° |
| 2026-05-06 12:25 | 38.75384 | 13.01660 | 8000 ft | 277 kts | 217° |
| 2026-05-06 12:25 | 38.73832 | 13.00191 | 8006 ft | 277 kts | 217° |
| 2026-05-06 12:25 | 38.72277 | 12.98723 | 8010 ft | 278 kts | 217° |
| 2026-05-06 12:25 | 38.70722 | 12.97263 | 8008 ft | 277 kts | 216° |
| 2026-05-06 12:26 | 38.69188 | 12.95822 | 8007 ft | 277 kts | 216° |
| 2026-05-06 12:26 | 38.67631 | 12.94357 | 8008 ft | 280 kts | 216° |
| 2026-05-06 12:26 | 38.66077 | 12.92881 | 8009 ft | 276 kts | 216° |
| 2026-05-06 12:26 | 38.64525 | 12.91413 | 8011 ft | 278 kts | 217° |
| 2026-05-06 12:27 | 38.62965 | 12.89953 | 8004 ft | 278 kts | 216° |
| 2026-05-06 12:27 | 38.61406 | 12.88495 | 8007 ft | 278 kts | 216° |
| 2026-05-06 12:27 | 38.59840 | 12.87031 | 8009 ft | 278 kts | 216° |
| 2026-05-06 12:27 | 38.58272 | 12.85559 | 8015 ft | 282 kts | 216° |
| 2026-05-06 12:28 | 38.56698 | 12.84082 | 7992 ft | 279 kts | 217° |
| 2026-05-06 12:28 | 38.55128 | 12.82616 | 7998 ft | 279 kts | 216° |
| 2026-05-06 12:28 | 38.53554 | 12.81158 | 8000 ft | 279 kts | 216° |
| 2026-05-06 12:28 | 38.51985 | 12.79690 | 7999 ft | 279 kts | 216° |
| 2026-05-06 12:29 | 38.50438 | 12.78241 | 7999 ft | 279 kts | 216° |
| 2026-05-06 12:29 | 38.48871 | 12.76774 | 7998 ft | 279 kts | 216° |
| 2026-05-06 12:29 | 38.47307 | 12.75308 | 8002 ft | 279 kts | 216° |
| 2026-05-06 12:29 | 38.45734 | 12.73833 | 8006 ft | 279 kts | 216° |
| 2026-05-06 12:30 | 38.44017 | 12.72688 | 7999 ft | 280 kts | 198° |
| 2026-05-06 12:30 | 38.42108 | 12.72316 | 7998 ft | 273 kts | 179° |
| 2026-05-06 12:30 | 38.40309 | 12.72715 | 8003 ft | 260 kts | 160° |
| 2026-05-06 12:30 | 38.38740 | 12.73690 | 7998 ft | 243 kts | 154° |
| 2026-05-06 12:31 | 38.37249 | 12.74667 | 8003 ft | 239 kts | 154° |
| 2026-05-06 12:31 | 38.35770 | 12.75635 | 7994 ft | 238 kts | 153° |
| 2026-05-06 12:31 | 38.34284 | 12.76605 | 7746 ft | 241 kts | 154° |
| 2026-05-06 12:31 | 38.32767 | 12.77593 | 7243 ft | 245 kts | 154° |
| 2026-05-06 12:32 | 38.31273 | 12.78574 | 6749 ft | 242 kts | 154° |
| 2026-05-06 12:32 | 38.29782 | 12.79549 | 6247 ft | 238 kts | 153° |
| 2026-05-06 12:32 | 38.28314 | 12.80516 | 5749 ft | 234 kts | 153° |
| 2026-05-06 12:32 | 38.26884 | 12.81463 | 5368 ft | 228 kts | 154° |
| 2026-05-06 12:33 | 38.25490 | 12.82377 | 5025 ft | 227 kts | 154° |
| 2026-05-06 12:33 | 38.24077 | 12.83298 | 4669 ft | 227 kts | 154° |
| 2026-05-06 12:33 | 38.22676 | 12.84210 | 4325 ft | 226 kts | 154° |
| 2026-05-06 12:33 | 38.21284 | 12.85115 | 3989 ft | 224 kts | 154° |
| 2026-05-06 12:34 | 38.19904 | 12.86012 | 3702 ft | 221 kts | 154° |
| 2026-05-06 12:34 | 38.18543 | 12.86900 | 3404 ft | 219 kts | 154° |
| 2026-05-06 12:34 | 38.17197 | 12.87777 | 3113 ft | 216 kts | 154° |
| 2026-05-06 12:34 | 38.15870 | 12.88644 | 2830 ft | 213 kts | 154° |
| 2026-05-06 12:35 | 38.14558 | 12.89499 | 2535 ft | 211 kts | 153° |
| 2026-05-06 12:35 | 38.13264 | 12.90355 | 2329 ft | 205 kts | 148° |
| 2026-05-06 12:35 | 38.12339 | 12.91601 | 2310 ft | 193 kts | 111° |
| 2026-05-06 12:35 | 38.12276 | 12.93235 | 2342 ft | 185 kts | 74° |
| 2026-05-06 12:36 | 38.12722 | 12.94686 | 2330 ft | 168 kts | 70° |
| 2026-05-06 12:36 | 38.13162 | 12.95999 | 2187 ft | 155 kts | 69° |
| 2026-05-06 12:36 | 38.13572 | 12.97200 | 1997 ft | 143 kts | 69° |
| 2026-05-06 12:36 | 38.13959 | 12.98340 | 1805 ft | 138 kts | 68° |
| 2026-05-06 12:37 | 38.14335 | 12.99444 | 1628 ft | 136 kts | 67° |
| 2026-05-06 12:37 | 38.14708 | 13.00545 | 1436 ft | 135 kts | 67° |
| 2026-05-06 12:37 | 38.14952 | 13.01270 | 1316 ft | 134 kts | 66° |
| 2026-05-06 12:37 | 38.15315 | 13.02351 | 1136 ft | 132 kts | 65° |
| 2026-05-06 12:38 | 38.15675 | 13.03420 | 951 ft | 131 kts | 65° |
| 2026-05-06 12:38 | 38.16034 | 13.04493 | 773 ft | 132 kts | 65° |
| 2026-05-06 12:38 | 38.16389 | 13.05569 | 596 ft | 132 kts | 64° |
| 2026-05-06 12:38 | 38.16750 | 13.06642 | 420 ft | 132 kts | 64° |
| 2026-05-06 12:39 | 38.17102 | 13.07701 | 264 ft | 130 kts | 63° |
| 2026-05-06 12:39 | 38.17463 | 13.08753 | 127 ft | 130 kts | 62° |
| 2026-05-06 12:39 | 38.17806 | 13.09757 | 68 ft | 111 kts | 65° |
| 2026-05-06 12:39 | 38.18046 | 13.10478 | 67 ft | 64 kts | 68° |
| 2026-05-06 12:40 | 38.18173 | 13.10853 | 68 ft | 39 kts | 66° |
| 2026-05-06 12:40 | 38.18274 | 13.11156 | 66 ft | 35 kts | 66° |
| 2026-05-06 12:40 | 38.18369 | 13.11435 | 63 ft | 34 kts | 67° |
| 2026-05-06 12:40 | 38.18454 | 13.11690 | 67 ft | 22 kts | 69° |
| 2026-05-06 12:41 | 38.18492 | 13.11804 | 72 ft | 14 kts | 66° |
| 2026-05-06 12:41 | 38.18540 | 13.11884 | 66 ft | 8 kts | 19° |
| 2026-05-06 12:41 | 38.18590 | 13.11836 | 62 ft | 11 kts | 292° |
| 2026-05-06 12:41 | 38.18603 | 13.11735 | 63 ft | 12 kts | 277° |
| 2026-05-06 12:42 | 38.18613 | 13.11628 | 62 ft | 12 kts | 276° |
| 2026-05-06 12:42 | 38.18605 | 13.11527 | 59 ft | 11 kts | 248° |
| 2026-05-06 12:42 | 38.18574 | 13.11438 | 63 ft | 10 kts | 247° |
| 2026-05-06 12:42 | 38.18546 | 13.11355 | 60 ft | 11 kts | 246° |
| 2026-05-06 12:43 | 38.18513 | 13.11257 | 61 ft | 12 kts | 246° |
| 2026-05-06 12:43 | 38.18481 | 13.11161 | 58 ft | 11 kts | 246° |
| 2026-05-06 12:43 | 38.18447 | 13.11062 | 59 ft | 13 kts | 247° |
| 2026-05-06 12:43 | 38.18429 | 13.10971 | 62 ft | 8 kts | 281° |
| 2026-05-06 12:44 | 38.18461 | 13.10914 | 59 ft | 7 kts | 301° |
| 2026-05-06 12:44 | 38.18476 | 13.10855 | 57 ft | 7 kts | 287° |
| 2026-05-06 12:44 | 38.18495 | 13.10782 | 63 ft | 9 kts | 289° |
| 2026-05-06 12:44 | 38.18503 | 13.10722 | 59 ft | 6 kts | 265° |
| 2026-05-06 12:45 | 38.18492 | 13.10678 | 60 ft | 5 kts | 249° |
| 2026-05-06 12:45 | 38.18495 | 13.10642 | 65 ft | 4 kts | 298° |
| 2026-05-06 12:45 | 38.18536 | 13.10616 | 58 ft | 3 kts | 339° |
| 2026-05-06 12:46 | 38.18547 | 13.10610 | 65 ft | 0 kts | 338° |